sensor_id;sensor_type;location;lat;lon;timestamp;P1;durP1;ratioP1;P2;durP2;ratioP2
15913;SDS011;8055;51.930;8.840;2023-05-07T00:01:28;25.08;;;18.75;;
15913;SDS011;8055;51.930;8.840;2023-05-07T00:03:54;21.92;;;16.25;;
15913;SDS011;8055;51.930;8.840;2023-05-07T00:06:19;22.85;;;17.38;;
15913;SDS011;8055;51.930;8.840;2023-05-07T00:08:44;22.50;;;17.02;;
15913;SDS011;8055;51.930;8.840;2023-05-07T00:11:10;21.25;;;16.80;;
15913;SDS011;8055;51.930;8.840;2023-05-07T00:13:35;24.55;;;17.40;;
15913;SDS011;8055;51.930;8.840;2023-05-07T00:16:03;23.08;;;17.17;;
15913;SDS011;8055;51.930;8.840;2023-05-07T00:18:30;24.58;;;18.00;;
15913;SDS011;8055;51.930;8.840;2023-05-07T00:20:55;22.67;;;17.92;;
15913;SDS011;8055;51.930;8.840;2023-05-07T00:23:21;22.17;;;17.83;;
15913;SDS011;8055;51.930;8.840;2023-05-07T00:25:47;22.40;;;18.10;;
15913;SDS011;8055;51.930;8.840;2023-05-07T00:28:12;22.42;;;17.52;;
15913;SDS011;8055;51.930;8.840;2023-05-07T00:30:38;21.65;;;16.48;;
15913;SDS011;8055;51.930;8.840;2023-05-07T00:33:03;23.52;;;17.13;;
15913;SDS011;8055;51.930;8.840;2023-05-07T00:35:29;22.10;;;16.83;;
15913;SDS011;8055;51.930;8.840;2023-05-07T00:37:55;23.98;;;18.10;;
15913;SDS011;8055;51.930;8.840;2023-05-07T00:40:20;26.52;;;18.77;;
15913;SDS011;8055;51.930;8.840;2023-05-07T00:42:46;22.40;;;17.02;;
15913;SDS011;8055;51.930;8.840;2023-05-07T00:45:12;25.35;;;18.55;;
15913;SDS011;8055;51.930;8.840;2023-05-07T00:47:39;24.70;;;18.38;;
15913;SDS011;8055;51.930;8.840;2023-05-07T00:50:05;23.40;;;18.70;;
15913;SDS011;8055;51.930;8.840;2023-05-07T00:52:32;25.15;;;18.98;;
15913;SDS011;8055;51.930;8.840;2023-05-07T00:54:57;23.90;;;17.80;;
15913;SDS011;8055;51.930;8.840;2023-05-07T00:57:29;24.50;;;18.63;;
15913;SDS011;8055;51.930;8.840;2023-05-07T00:59:57;27.48;;;18.17;;
15913;SDS011;8055;51.930;8.840;2023-05-07T01:02:22;24.42;;;18.45;;
15913;SDS011;8055;51.930;8.840;2023-05-07T01:04:48;25.67;;;17.95;;
15913;SDS011;8055;51.930;8.840;2023-05-07T01:07:13;26.00;;;17.92;;
15913;SDS011;8055;51.930;8.840;2023-05-07T01:09:39;26.55;;;18.23;;
15913;SDS011;8055;51.930;8.840;2023-05-07T01:12:05;22.83;;;18.85;;
15913;SDS011;8055;51.930;8.840;2023-05-07T01:14:32;24.08;;;18.48;;
15913;SDS011;8055;51.930;8.840;2023-05-07T01:16:58;26.45;;;17.88;;
15913;SDS011;8055;51.930;8.840;2023-05-07T01:19:23;25.17;;;20.05;;
15913;SDS011;8055;51.930;8.840;2023-05-07T01:21:49;27.67;;;18.50;;
15913;SDS011;8055;51.930;8.840;2023-05-07T01:24:16;24.67;;;18.38;;
15913;SDS011;8055;51.930;8.840;2023-05-07T01:26:43;25.52;;;19.65;;
15913;SDS011;8055;51.930;8.840;2023-05-07T01:29:09;24.50;;;18.13;;
15913;SDS011;8055;51.930;8.840;2023-05-07T01:31:35;22.98;;;17.80;;
15913;SDS011;8055;51.930;8.840;2023-05-07T01:34:02;29.02;;;18.42;;
15913;SDS011;8055;51.930;8.840;2023-05-07T01:36:30;29.10;;;19.77;;
15913;SDS011;8055;51.930;8.840;2023-05-07T01:38:57;26.55;;;20.23;;
15913;SDS011;8055;51.930;8.840;2023-05-07T01:41:24;25.45;;;18.95;;
15913;SDS011;8055;51.930;8.840;2023-05-07T01:43:49;24.58;;;17.77;;
15913;SDS011;8055;51.930;8.840;2023-05-07T01:46:17;28.42;;;20.58;;
15913;SDS011;8055;51.930;8.840;2023-05-07T01:48:43;23.02;;;19.80;;
15913;SDS011;8055;51.930;8.840;2023-05-07T01:51:11;22.10;;;18.55;;
15913;SDS011;8055;51.930;8.840;2023-05-07T01:53:37;25.77;;;18.88;;
15913;SDS011;8055;51.930;8.840;2023-05-07T01:56:03;25.55;;;19.90;;
15913;SDS011;8055;51.930;8.840;2023-05-07T01:58:29;23.38;;;18.40;;
15913;SDS011;8055;51.930;8.840;2023-05-07T02:00:54;25.60;;;19.55;;
15913;SDS011;8055;51.930;8.840;2023-05-07T02:03:20;24.17;;;18.67;;
15913;SDS011;8055;51.930;8.840;2023-05-07T02:05:45;25.20;;;19.88;;
15913;SDS011;8055;51.930;8.840;2023-05-07T02:08:11;29.02;;;20.40;;
15913;SDS011;8055;51.930;8.840;2023-05-07T02:10:36;25.67;;;19.52;;
15913;SDS011;8055;51.930;8.840;2023-05-07T02:13:01;26.25;;;19.75;;
15913;SDS011;8055;51.930;8.840;2023-05-07T02:15:27;27.88;;;19.90;;
15913;SDS011;8055;51.930;8.840;2023-05-07T02:18:05;27.48;;;20.58;;
15913;SDS011;8055;51.930;8.840;2023-05-07T02:20:31;27.10;;;20.95;;
15913;SDS011;8055;51.930;8.840;2023-05-07T02:22:57;27.33;;;20.52;;
15913;SDS011;8055;51.930;8.840;2023-05-07T02:25:23;29.02;;;20.85;;
15913;SDS011;8055;51.930;8.840;2023-05-07T02:27:48;25.15;;;19.23;;
15913;SDS011;8055;51.930;8.840;2023-05-07T02:30:14;28.27;;;20.83;;
15913;SDS011;8055;51.930;8.840;2023-05-07T02:32:39;24.63;;;19.55;;
15913;SDS011;8055;51.930;8.840;2023-05-07T02:35:05;24.92;;;19.67;;
15913;SDS011;8055;51.930;8.840;2023-05-07T02:37:30;36.05;;;20.38;;
15913;SDS011;8055;51.930;8.840;2023-05-07T02:39:56;24.40;;;19.88;;
15913;SDS011;8055;51.930;8.840;2023-05-07T02:42:21;25.02;;;19.92;;
15913;SDS011;8055;51.930;8.840;2023-05-07T02:44:47;25.83;;;20.02;;
15913;SDS011;8055;51.930;8.840;2023-05-07T02:47:13;27.48;;;20.67;;
15913;SDS011;8055;51.930;8.840;2023-05-07T02:49:39;28.42;;;20.48;;
15913;SDS011;8055;51.930;8.840;2023-05-07T02:52:04;29.52;;;19.90;;
15913;SDS011;8055;51.930;8.840;2023-05-07T02:54:30;31.33;;;20.75;;
15913;SDS011;8055;51.930;8.840;2023-05-07T02:56:55;26.65;;;20.77;;
15913;SDS011;8055;51.930;8.840;2023-05-07T02:59:21;31.85;;;22.65;;
15913;SDS011;8055;51.930;8.840;2023-05-07T03:01:46;30.35;;;21.33;;
15913;SDS011;8055;51.930;8.840;2023-05-07T03:04:13;30.65;;;23.67;;
15913;SDS011;8055;51.930;8.840;2023-05-07T03:06:38;30.40;;;21.02;;
15913;SDS011;8055;51.930;8.840;2023-05-07T03:09:04;27.90;;;20.40;;
15913;SDS011;8055;51.930;8.840;2023-05-07T03:11:29;29.30;;;20.65;;
15913;SDS011;8055;51.930;8.840;2023-05-07T03:13:54;30.38;;;22.55;;
15913;SDS011;8055;51.930;8.840;2023-05-07T03:16:20;32.28;;;21.17;;
15913;SDS011;8055;51.930;8.840;2023-05-07T03:18:45;28.02;;;21.05;;
15913;SDS011;8055;51.930;8.840;2023-05-07T03:21:11;31.38;;;21.83;;
15913;SDS011;8055;51.930;8.840;2023-05-07T03:23:36;29.13;;;20.65;;
15913;SDS011;8055;51.930;8.840;2023-05-07T03:26:02;33.70;;;21.50;;
15913;SDS011;8055;51.930;8.840;2023-05-07T03:28:27;31.23;;;21.95;;
15913;SDS011;8055;51.930;8.840;2023-05-07T03:30:52;33.97;;;22.60;;
15913;SDS011;8055;51.930;8.840;2023-05-07T03:33:18;30.83;;;21.92;;
15913;SDS011;8055;51.930;8.840;2023-05-07T03:35:43;27.73;;;20.98;;
15913;SDS011;8055;51.930;8.840;2023-05-07T03:38:08;30.30;;;22.75;;
15913;SDS011;8055;51.930;8.840;2023-05-07T03:40:34;29.77;;;22.40;;
15913;SDS011;8055;51.930;8.840;2023-05-07T03:43:00;32.03;;;21.85;;
15913;SDS011;8055;51.930;8.840;2023-05-07T03:45:25;29.38;;;22.38;;
15913;SDS011;8055;51.930;8.840;2023-05-07T03:47:51;31.95;;;22.27;;
15913;SDS011;8055;51.930;8.840;2023-05-07T03:50:16;28.77;;;21.40;;
15913;SDS011;8055;51.930;8.840;2023-05-07T03:52:42;32.13;;;23.23;;
15913;SDS011;8055;51.930;8.840;2023-05-07T03:55:08;34.58;;;22.88;;
15913;SDS011;8055;51.930;8.840;2023-05-07T03:57:33;29.27;;;21.52;;
15913;SDS011;8055;51.930;8.840;2023-05-07T03:59:59;27.65;;;21.30;;
15913;SDS011;8055;51.930;8.840;2023-05-07T04:02:24;31.67;;;23.13;;
15913;SDS011;8055;51.930;8.840;2023-05-07T04:04:49;34.92;;;23.48;;
15913;SDS011;8055;51.930;8.840;2023-05-07T04:07:15;28.30;;;21.52;;
15913;SDS011;8055;51.930;8.840;2023-05-07T04:09:40;33.10;;;23.67;;
15913;SDS011;8055;51.930;8.840;2023-05-07T04:12:06;32.55;;;22.85;;
15913;SDS011;8055;51.930;8.840;2023-05-07T04:14:31;31.58;;;22.83;;
15913;SDS011;8055;51.930;8.840;2023-05-07T04:16:57;31.70;;;22.45;;
15913;SDS011;8055;51.930;8.840;2023-05-07T04:19:24;31.17;;;23.42;;
15913;SDS011;8055;51.930;8.840;2023-05-07T04:21:50;32.47;;;23.35;;
15913;SDS011;8055;51.930;8.840;2023-05-07T04:24:15;31.67;;;23.20;;
15913;SDS011;8055;51.930;8.840;2023-05-07T04:26:41;33.65;;;23.88;;
15913;SDS011;8055;51.930;8.840;2023-05-07T04:29:06;32.58;;;23.35;;
15913;SDS011;8055;51.930;8.840;2023-05-07T04:31:31;35.85;;;23.80;;
15913;SDS011;8055;51.930;8.840;2023-05-07T04:33:57;30.92;;;22.73;;
15913;SDS011;8055;51.930;8.840;2023-05-07T04:36:22;32.22;;;23.60;;
15913;SDS011;8055;51.930;8.840;2023-05-07T04:38:48;36.30;;;23.60;;
15913;SDS011;8055;51.930;8.840;2023-05-07T04:41:13;34.17;;;23.75;;
15913;SDS011;8055;51.930;8.840;2023-05-07T04:43:39;31.73;;;23.02;;
15913;SDS011;8055;51.930;8.840;2023-05-07T04:46:05;35.28;;;24.08;;
15913;SDS011;8055;51.930;8.840;2023-05-07T04:48:30;32.58;;;23.30;;
15913;SDS011;8055;51.930;8.840;2023-05-07T04:50:55;32.22;;;23.30;;
15913;SDS011;8055;51.930;8.840;2023-05-07T04:53:21;34.05;;;24.73;;
15913;SDS011;8055;51.930;8.840;2023-05-07T04:55:46;34.00;;;23.80;;
15913;SDS011;8055;51.930;8.840;2023-05-07T04:58:12;30.88;;;22.67;;
15913;SDS011;8055;51.930;8.840;2023-05-07T05:00:38;35.00;;;24.33;;
15913;SDS011;8055;51.930;8.840;2023-05-07T05:03:04;33.70;;;23.77;;
15913;SDS011;8055;51.930;8.840;2023-05-07T05:05:31;33.67;;;23.80;;
15913;SDS011;8055;51.930;8.840;2023-05-07T05:07:57;41.70;;;24.13;;
15913;SDS011;8055;51.930;8.840;2023-05-07T05:10:22;31.67;;;22.88;;
15913;SDS011;8055;51.930;8.840;2023-05-07T05:12:48;32.65;;;23.80;;
15913;SDS011;8055;51.930;8.840;2023-05-07T05:15:13;31.30;;;23.08;;
15913;SDS011;8055;51.930;8.840;2023-05-07T05:17:39;33.65;;;24.05;;
15913;SDS011;8055;51.930;8.840;2023-05-07T05:20:04;33.58;;;24.42;;
15913;SDS011;8055;51.930;8.840;2023-05-07T05:22:31;33.03;;;24.52;;
15913;SDS011;8055;51.930;8.840;2023-05-07T05:24:56;32.95;;;23.83;;
15913;SDS011;8055;51.930;8.840;2023-05-07T05:27:22;31.75;;;23.17;;
15913;SDS011;8055;51.930;8.840;2023-05-07T05:29:47;31.00;;;22.00;;
15913;SDS011;8055;51.930;8.840;2023-05-07T05:32:13;31.88;;;22.90;;
15913;SDS011;8055;51.930;8.840;2023-05-07T05:34:39;37.13;;;23.30;;
15913;SDS011;8055;51.930;8.840;2023-05-07T05:37:04;34.08;;;22.83;;
15913;SDS011;8055;51.930;8.840;2023-05-07T05:39:29;32.70;;;23.45;;
15913;SDS011;8055;51.930;8.840;2023-05-07T05:41:56;30.60;;;21.95;;
15913;SDS011;8055;51.930;8.840;2023-05-07T05:44:21;32.80;;;22.73;;
15913;SDS011;8055;51.930;8.840;2023-05-07T05:46:46;31.17;;;22.23;;
15913;SDS011;8055;51.930;8.840;2023-05-07T05:49:12;29.80;;;21.42;;
15913;SDS011;8055;51.930;8.840;2023-05-07T05:51:37;34.28;;;22.90;;
15913;SDS011;8055;51.930;8.840;2023-05-07T05:54:03;30.33;;;22.38;;
15913;SDS011;8055;51.930;8.840;2023-05-07T05:56:28;38.15;;;23.05;;
15913;SDS011;8055;51.930;8.840;2023-05-07T05:58:54;30.50;;;22.50;;
15913;SDS011;8055;51.930;8.840;2023-05-07T06:01:19;31.63;;;21.77;;
15913;SDS011;8055;51.930;8.840;2023-05-07T06:03:45;30.10;;;22.25;;
15913;SDS011;8055;51.930;8.840;2023-05-07T06:06:10;29.40;;;22.05;;
15913;SDS011;8055;51.930;8.840;2023-05-07T06:08:35;30.65;;;21.23;;
15913;SDS011;8055;51.930;8.840;2023-05-07T06:11:01;31.60;;;22.45;;
15913;SDS011;8055;51.930;8.840;2023-05-07T06:13:27;31.58;;;21.83;;
15913;SDS011;8055;51.930;8.840;2023-05-07T06:15:53;32.08;;;22.60;;
15913;SDS011;8055;51.930;8.840;2023-05-07T06:18:18;31.90;;;22.10;;
15913;SDS011;8055;51.930;8.840;2023-05-07T06:20:44;32.33;;;21.90;;
15913;SDS011;8055;51.930;8.840;2023-05-07T06:23:09;29.73;;;20.38;;
15913;SDS011;8055;51.930;8.840;2023-05-07T06:25:35;28.83;;;21.70;;
15913;SDS011;8055;51.930;8.840;2023-05-07T06:28:00;28.15;;;20.15;;
15913;SDS011;8055;51.930;8.840;2023-05-07T06:30:25;27.13;;;20.10;;
15913;SDS011;8055;51.930;8.840;2023-05-07T06:32:52;25.88;;;19.02;;
15913;SDS011;8055;51.930;8.840;2023-05-07T06:35:17;30.85;;;20.17;;
15913;SDS011;8055;51.930;8.840;2023-05-07T06:37:42;30.10;;;20.88;;
15913;SDS011;8055;51.930;8.840;2023-05-07T06:42:40;27.05;;;18.60;;
15913;SDS011;8055;51.930;8.840;2023-05-07T06:45:05;27.17;;;18.45;;
15913;SDS011;8055;51.930;8.840;2023-05-07T06:47:31;23.70;;;17.52;;
15913;SDS011;8055;51.930;8.840;2023-05-07T06:49:56;21.90;;;16.80;;
15913;SDS011;8055;51.930;8.840;2023-05-07T06:52:22;23.45;;;16.95;;
15913;SDS011;8055;51.930;8.840;2023-05-07T06:54:47;22.20;;;16.83;;
15913;SDS011;8055;51.930;8.840;2023-05-07T06:57:13;22.90;;;16.38;;
15913;SDS011;8055;51.930;8.840;2023-05-07T06:59:38;21.40;;;15.20;;
15913;SDS011;8055;51.930;8.840;2023-05-07T07:02:03;22.52;;;16.00;;
15913;SDS011;8055;51.930;8.840;2023-05-07T07:04:29;22.40;;;16.00;;
15913;SDS011;8055;51.930;8.840;2023-05-07T07:06:56;22.08;;;15.50;;
15913;SDS011;8055;51.930;8.840;2023-05-07T07:09:21;21.00;;;16.30;;
15913;SDS011;8055;51.930;8.840;2023-05-07T07:11:47;21.33;;;17.23;;
15913;SDS011;8055;51.930;8.840;2023-05-07T07:14:12;24.30;;;17.00;;
15913;SDS011;8055;51.930;8.840;2023-05-07T07:16:38;21.90;;;15.85;;
15913;SDS011;8055;51.930;8.840;2023-05-07T07:19:03;21.67;;;16.27;;
15913;SDS011;8055;51.930;8.840;2023-05-07T07:21:29;23.60;;;16.65;;
15913;SDS011;8055;51.930;8.840;2023-05-07T07:23:55;21.77;;;16.80;;
15913;SDS011;8055;51.930;8.840;2023-05-07T07:26:20;20.67;;;15.07;;
15913;SDS011;8055;51.930;8.840;2023-05-07T07:28:46;20.50;;;15.45;;
15913;SDS011;8055;51.930;8.840;2023-05-07T07:31:12;23.42;;;15.10;;
15913;SDS011;8055;51.930;8.840;2023-05-07T07:33:37;20.90;;;14.68;;
15913;SDS011;8055;51.930;8.840;2023-05-07T07:36:03;19.85;;;14.50;;
15913;SDS011;8055;51.930;8.840;2023-05-07T07:38:30;20.40;;;15.10;;
15913;SDS011;8055;51.930;8.840;2023-05-07T07:40:55;21.77;;;14.95;;
15913;SDS011;8055;51.930;8.840;2023-05-07T07:43:21;19.13;;;14.30;;
15913;SDS011;8055;51.930;8.840;2023-05-07T07:45:46;18.83;;;13.55;;
15913;SDS011;8055;51.930;8.840;2023-05-07T07:48:12;18.48;;;13.77;;
15913;SDS011;8055;51.930;8.840;2023-05-07T07:50:37;21.05;;;14.68;;
15913;SDS011;8055;51.930;8.840;2023-05-07T07:53:03;17.58;;;13.00;;
15913;SDS011;8055;51.930;8.840;2023-05-07T07:55:28;17.67;;;13.95;;
15913;SDS011;8055;51.930;8.840;2023-05-07T07:57:56;18.75;;;14.27;;
15913;SDS011;8055;51.930;8.840;2023-05-07T08:00:21;21.05;;;14.93;;
15913;SDS011;8055;51.930;8.840;2023-05-07T08:02:47;18.08;;;13.57;;
15913;SDS011;8055;51.930;8.840;2023-05-07T08:05:12;19.60;;;13.52;;
15913;SDS011;8055;51.930;8.840;2023-05-07T08:07:37;16.02;;;12.45;;
15913;SDS011;8055;51.930;8.840;2023-05-07T08:10:03;17.75;;;13.80;;
15913;SDS011;8055;51.930;8.840;2023-05-07T08:12:29;19.10;;;14.02;;
15913;SDS011;8055;51.930;8.840;2023-05-07T08:14:54;17.27;;;13.60;;
15913;SDS011;8055;51.930;8.840;2023-05-07T08:17:20;17.92;;;13.20;;
15913;SDS011;8055;51.930;8.840;2023-05-07T08:19:47;17.67;;;13.68;;
15913;SDS011;8055;51.930;8.840;2023-05-07T08:22:13;20.02;;;14.25;;
15913;SDS011;8055;51.930;8.840;2023-05-07T08:24:39;16.52;;;12.57;;
15913;SDS011;8055;51.930;8.840;2023-05-07T08:27:04;16.45;;;12.65;;
15913;SDS011;8055;51.930;8.840;2023-05-07T08:29:30;16.60;;;12.88;;
15913;SDS011;8055;51.930;8.840;2023-05-07T08:31:55;16.10;;;12.52;;
15913;SDS011;8055;51.930;8.840;2023-05-07T08:34:21;20.42;;;12.85;;
15913;SDS011;8055;51.930;8.840;2023-05-07T08:36:47;15.60;;;12.10;;
15913;SDS011;8055;51.930;8.840;2023-05-07T08:39:13;18.58;;;12.50;;
15913;SDS011;8055;51.930;8.840;2023-05-07T08:41:43;15.27;;;12.43;;
15913;SDS011;8055;51.930;8.840;2023-05-07T08:44:11;14.85;;;12.25;;
15913;SDS011;8055;51.930;8.840;2023-05-07T08:46:39;16.85;;;12.13;;
15913;SDS011;8055;51.930;8.840;2023-05-07T08:49:04;16.50;;;13.13;;
15913;SDS011;8055;51.930;8.840;2023-05-07T08:51:30;17.05;;;12.68;;
15913;SDS011;8055;51.930;8.840;2023-05-07T08:53:56;16.10;;;12.43;;
15913;SDS011;8055;51.930;8.840;2023-05-07T08:56:21;16.27;;;11.93;;
15913;SDS011;8055;51.930;8.840;2023-05-07T08:58:47;17.27;;;12.35;;
15913;SDS011;8055;51.930;8.840;2023-05-07T09:01:13;15.15;;;12.15;;
15913;SDS011;8055;51.930;8.840;2023-05-07T09:03:40;16.13;;;12.43;;
15913;SDS011;8055;51.930;8.840;2023-05-07T09:06:08;16.13;;;12.00;;
15913;SDS011;8055;51.930;8.840;2023-05-07T09:08:34;17.38;;;13.38;;
15913;SDS011;8055;51.930;8.840;2023-05-07T09:11:00;16.35;;;12.07;;
15913;SDS011;8055;51.930;8.840;2023-05-07T09:13:26;18.08;;;13.00;;
15913;SDS011;8055;51.930;8.840;2023-05-07T09:15:52;15.55;;;12.32;;
15913;SDS011;8055;51.930;8.840;2023-05-07T09:18:18;13.63;;;10.82;;
15913;SDS011;8055;51.930;8.840;2023-05-07T09:20:43;14.52;;;11.82;;
15913;SDS011;8055;51.930;8.840;2023-05-07T09:23:09;14.52;;;11.60;;
15913;SDS011;8055;51.930;8.840;2023-05-07T09:25:35;16.73;;;11.38;;
15913;SDS011;8055;51.930;8.840;2023-05-07T09:28:02;14.43;;;11.65;;
15913;SDS011;8055;51.930;8.840;2023-05-07T09:30:29;14.65;;;11.52;;
15913;SDS011;8055;51.930;8.840;2023-05-07T09:32:59;15.45;;;11.10;;
15913;SDS011;8055;51.930;8.840;2023-05-07T09:35:25;16.83;;;11.85;;
15913;SDS011;8055;51.930;8.840;2023-05-07T09:37:58;15.52;;;11.27;;
15913;SDS011;8055;51.930;8.840;2023-05-07T09:40:26;16.30;;;11.75;;
15913;SDS011;8055;51.930;8.840;2023-05-07T09:42:56;14.87;;;11.53;;
15913;SDS011;8055;51.930;8.840;2023-05-07T09:45:25;14.88;;;11.27;;
15913;SDS011;8055;51.930;8.840;2023-05-07T09:47:53;17.73;;;11.48;;
15913;SDS011;8055;51.930;8.840;2023-05-07T09:50:21;15.38;;;11.98;;
15913;SDS011;8055;51.930;8.840;2023-05-07T09:52:50;12.88;;;10.40;;
15913;SDS011;8055;51.930;8.840;2023-05-07T09:55:17;13.75;;;10.75;;
15913;SDS011;8055;51.930;8.840;2023-05-07T09:57:43;14.65;;;10.48;;
15913;SDS011;8055;51.930;8.840;2023-05-07T10:00:10;12.32;;;10.23;;
15913;SDS011;8055;51.930;8.840;2023-05-07T10:02:36;14.95;;;11.27;;
15913;SDS011;8055;51.930;8.840;2023-05-07T10:05:11;13.75;;;10.48;;
15913;SDS011;8055;51.930;8.840;2023-05-07T10:07:37;12.18;;;9.93;;
15913;SDS011;8055;51.930;8.840;2023-05-07T10:10:04;14.25;;;10.30;;
15913;SDS011;8055;51.930;8.840;2023-05-07T10:12:30;12.48;;;10.02;;
15913;SDS011;8055;51.930;8.840;2023-05-07T10:17:28;13.27;;;10.40;;
15913;SDS011;8055;51.930;8.840;2023-05-07T10:19:54;11.05;;;9.07;;
15913;SDS011;8055;51.930;8.840;2023-05-07T10:22:19;12.13;;;9.60;;
15913;SDS011;8055;51.930;8.840;2023-05-07T10:24:47;12.15;;;8.68;;
15913;SDS011;8055;51.930;8.840;2023-05-07T10:27:16;12.50;;;8.88;;
15913;SDS011;8055;51.930;8.840;2023-05-07T10:32:37;15.27;;;9.30;;
15913;SDS011;8055;51.930;8.840;2023-05-07T10:35:10;12.32;;;8.65;;
15913;SDS011;8055;51.930;8.840;2023-05-07T10:37:40;10.80;;;8.20;;
15913;SDS011;8055;51.930;8.840;2023-05-07T10:40:06;11.85;;;7.82;;
15913;SDS011;8055;51.930;8.840;2023-05-07T10:42:32;11.35;;;8.90;;
15913;SDS011;8055;51.930;8.840;2023-05-07T10:44:57;9.23;;;7.60;;
15913;SDS011;8055;51.930;8.840;2023-05-07T10:47:23;9.70;;;7.82;;
15913;SDS011;8055;51.930;8.840;2023-05-07T10:52:14;9.73;;;7.27;;
15913;SDS011;8055;51.930;8.840;2023-05-07T10:54:44;8.40;;;6.63;;
15913;SDS011;8055;51.930;8.840;2023-05-07T11:00:00;9.48;;;7.20;;
15913;SDS011;8055;51.930;8.840;2023-05-07T11:03:04;9.07;;;6.90;;
15913;SDS011;8055;51.930;8.840;2023-05-07T11:05:30;8.30;;;6.90;;
15913;SDS011;8055;51.930;8.840;2023-05-07T11:07:57;8.20;;;6.90;;
15913;SDS011;8055;51.930;8.840;2023-05-07T11:10:59;9.50;;;6.93;;
15913;SDS011;8055;51.930;8.840;2023-05-07T11:16:20;8.73;;;6.50;;
15913;SDS011;8055;51.930;8.840;2023-05-07T11:21:31;8.75;;;5.82;;
15913;SDS011;8055;51.930;8.840;2023-05-07T11:23:58;7.45;;;5.88;;
15913;SDS011;8055;51.930;8.840;2023-05-07T11:26:24;6.63;;;5.25;;
15913;SDS011;8055;51.930;8.840;2023-05-07T11:28:50;8.43;;;5.22;;
15913;SDS011;8055;51.930;8.840;2023-05-07T11:31:17;9.82;;;6.47;;
15913;SDS011;8055;51.930;8.840;2023-05-07T11:33:46;6.25;;;5.40;;
15913;SDS011;8055;51.930;8.840;2023-05-07T11:36:11;6.90;;;5.35;;
15913;SDS011;8055;51.930;8.840;2023-05-07T11:38:38;6.53;;;5.15;;
15913;SDS011;8055;51.930;8.840;2023-05-07T11:41:03;5.80;;;5.07;;
15913;SDS011;8055;51.930;8.840;2023-05-07T11:43:30;7.95;;;5.97;;
15913;SDS011;8055;51.930;8.840;2023-05-07T11:46:11;8.10;;;5.15;;
15913;SDS011;8055;51.930;8.840;2023-05-07T11:48:38;6.30;;;5.03;;
15913;SDS011;8055;51.930;8.840;2023-05-07T11:51:04;7.40;;;5.43;;
15913;SDS011;8055;51.930;8.840;2023-05-07T11:53:42;5.88;;;5.30;;
15913;SDS011;8055;51.930;8.840;2023-05-07T11:56:08;7.35;;;5.25;;
15913;SDS011;8055;51.930;8.840;2023-05-07T11:58:34;6.70;;;5.25;;
15913;SDS011;8055;51.930;8.840;2023-05-07T12:01:00;6.97;;;5.22;;
15913;SDS011;8055;51.930;8.840;2023-05-07T12:03:26;5.80;;;5.10;;
15913;SDS011;8055;51.930;8.840;2023-05-07T12:05:51;5.35;;;4.43;;
15913;SDS011;8055;51.930;8.840;2023-05-07T12:08:17;5.35;;;4.65;;
15913;SDS011;8055;51.930;8.840;2023-05-07T12:10:43;6.72;;;4.20;;
15913;SDS011;8055;51.930;8.840;2023-05-07T12:15:46;8.05;;;4.95;;
15913;SDS011;8055;51.930;8.840;2023-05-07T12:18:15;6.50;;;4.65;;
15913;SDS011;8055;51.930;8.840;2023-05-07T12:20:40;6.88;;;4.60;;
15913;SDS011;8055;51.930;8.840;2023-05-07T12:23:06;5.32;;;4.53;;
15913;SDS011;8055;51.930;8.840;2023-05-07T12:25:35;6.32;;;4.47;;
15913;SDS011;8055;51.930;8.840;2023-05-07T12:28:04;5.53;;;4.30;;
15913;SDS011;8055;51.930;8.840;2023-05-07T12:30:31;6.25;;;5.07;;
15913;SDS011;8055;51.930;8.840;2023-05-07T12:32:57;5.50;;;4.60;;
15913;SDS011;8055;51.930;8.840;2023-05-07T12:35:32;4.75;;;4.15;;
15913;SDS011;8055;51.930;8.840;2023-05-07T12:38:04;5.90;;;4.47;;
15913;SDS011;8055;51.930;8.840;2023-05-07T12:40:43;5.75;;;4.50;;
15913;SDS011;8055;51.930;8.840;2023-05-07T12:45:43;6.32;;;5.00;;
15913;SDS011;8055;51.930;8.840;2023-05-07T12:48:10;6.78;;;5.35;;
15913;SDS011;8055;51.930;8.840;2023-05-07T12:50:35;5.43;;;4.45;;
15913;SDS011;8055;51.930;8.840;2023-05-07T12:53:04;5.85;;;4.88;;
15913;SDS011;8055;51.930;8.840;2023-05-07T12:55:31;5.97;;;4.85;;
15913;SDS011;8055;51.930;8.840;2023-05-07T12:57:57;7.32;;;4.70;;
15913;SDS011;8055;51.930;8.840;2023-05-07T13:00:38;6.13;;;5.18;;
15913;SDS011;8055;51.930;8.840;2023-05-07T13:03:04;7.40;;;5.25;;
15913;SDS011;8055;51.930;8.840;2023-05-07T13:05:30;6.22;;;5.60;;
15913;SDS011;8055;51.930;8.840;2023-05-07T13:07:56;6.05;;;5.45;;
15913;SDS011;8055;51.930;8.840;2023-05-07T13:10:22;6.20;;;5.53;;
15913;SDS011;8055;51.930;8.840;2023-05-07T13:12:49;7.07;;;5.10;;
15913;SDS011;8055;51.930;8.840;2023-05-07T13:15:15;9.18;;;5.88;;
15913;SDS011;8055;51.930;8.840;2023-05-07T13:17:40;5.70;;;5.07;;
15913;SDS011;8055;51.930;8.840;2023-05-07T13:20:06;6.47;;;5.28;;
15913;SDS011;8055;51.930;8.840;2023-05-07T13:22:34;7.15;;;5.75;;
15913;SDS011;8055;51.930;8.840;2023-05-07T13:24:59;6.85;;;5.35;;
15913;SDS011;8055;51.930;8.840;2023-05-07T13:27:25;7.72;;;5.65;;
15913;SDS011;8055;51.930;8.840;2023-05-07T13:29:51;6.63;;;5.40;;
15913;SDS011;8055;51.930;8.840;2023-05-07T13:32:16;8.27;;;7.03;;
15913;SDS011;8055;51.930;8.840;2023-05-07T13:34:42;7.82;;;6.03;;
15913;SDS011;8055;51.930;8.840;2023-05-07T13:37:07;8.32;;;6.13;;
15913;SDS011;8055;51.930;8.840;2023-05-07T13:39:32;9.38;;;6.45;;
15913;SDS011;8055;51.930;8.840;2023-05-07T13:41:58;8.27;;;6.88;;
15913;SDS011;8055;51.930;8.840;2023-05-07T13:44:23;8.63;;;7.18;;
15913;SDS011;8055;51.930;8.840;2023-05-07T13:46:49;8.75;;;6.50;;
15913;SDS011;8055;51.930;8.840;2023-05-07T13:49:15;7.93;;;6.40;;
15913;SDS011;8055;51.930;8.840;2023-05-07T13:51:40;7.70;;;6.85;;
15913;SDS011;8055;51.930;8.840;2023-05-07T13:54:06;8.88;;;7.28;;
15913;SDS011;8055;51.930;8.840;2023-05-07T13:56:31;9.32;;;6.97;;
15913;SDS011;8055;51.930;8.840;2023-05-07T13:58:57;8.32;;;7.43;;
15913;SDS011;8055;51.930;8.840;2023-05-07T14:01:23;9.55;;;7.72;;
15913;SDS011;8055;51.930;8.840;2023-05-07T14:03:48;8.73;;;6.95;;
15913;SDS011;8055;51.930;8.840;2023-05-07T14:06:14;8.85;;;7.05;;
15913;SDS011;8055;51.930;8.840;2023-05-07T14:08:39;8.15;;;6.70;;
15913;SDS011;8055;51.930;8.840;2023-05-07T14:11:05;7.65;;;6.85;;
15913;SDS011;8055;51.930;8.840;2023-05-07T14:13:31;7.80;;;7.00;;
15913;SDS011;8055;51.930;8.840;2023-05-07T14:15:57;9.40;;;7.65;;
15913;SDS011;8055;51.930;8.840;2023-05-07T14:18:23;8.60;;;7.05;;
15913;SDS011;8055;51.930;8.840;2023-05-07T14:20:48;8.52;;;7.40;;
15913;SDS011;8055;51.930;8.840;2023-05-07T14:23:14;8.88;;;7.60;;
15913;SDS011;8055;51.930;8.840;2023-05-07T14:25:40;9.45;;;7.93;;
15913;SDS011;8055;51.930;8.840;2023-05-07T14:28:06;12.65;;;8.82;;
15913;SDS011;8055;51.930;8.840;2023-05-07T14:30:31;9.57;;;8.38;;
15913;SDS011;8055;51.930;8.840;2023-05-07T14:32:57;8.80;;;7.63;;
15913;SDS011;8055;51.930;8.840;2023-05-07T14:35:22;8.93;;;8.02;;
15913;SDS011;8055;51.930;8.840;2023-05-07T14:37:47;9.40;;;8.45;;
15913;SDS011;8055;51.930;8.840;2023-05-07T14:40:13;9.68;;;7.97;;
15913;SDS011;8055;51.930;8.840;2023-05-07T14:42:39;11.05;;;9.15;;
15913;SDS011;8055;51.930;8.840;2023-05-07T14:45:05;10.13;;;8.48;;
15913;SDS011;8055;51.930;8.840;2023-05-07T14:47:31;9.30;;;8.32;;
15913;SDS011;8055;51.930;8.840;2023-05-07T14:49:56;10.20;;;8.57;;
15913;SDS011;8055;51.930;8.840;2023-05-07T14:52:22;10.95;;;8.80;;
15913;SDS011;8055;51.930;8.840;2023-05-07T14:54:47;9.45;;;8.40;;
15913;SDS011;8055;51.930;8.840;2023-05-07T14:57:13;10.48;;;8.13;;
15913;SDS011;8055;51.930;8.840;2023-05-07T14:59:41;11.43;;;8.20;;